sensor_id;sensor_type;location;lat;lon;timestamp;temperature;humidity
25825;DHT22;13658;44.534;18.694;2023-03-01T15:29:10;5.50;99.90
25825;DHT22;13658;44.534;18.694;2023-03-01T15:31:42;5.40;99.90
25825;DHT22;13658;44.534;18.694;2023-03-01T15:36:46;5.30;99.90
25825;DHT22;13658;44.534;18.694;2023-03-01T15:39:35;5.30;99.90
25825;DHT22;13658;44.534;18.694;2023-03-01T15:42:10;5.30;99.90
25825;DHT22;13658;44.534;18.694;2023-03-01T15:44:39;5.30;99.90
25825;DHT22;13658;44.534;18.694;2023-03-01T15:47:40;5.30;99.90
25825;DHT22;13658;44.534;18.694;2023-03-01T15:50:22;5.20;99.90
25825;DHT22;13658;44.534;18.694;2023-03-01T15:52:51;5.10;99.90
25825;DHT22;13658;44.534;18.694;2023-03-01T15:55:26;5.10;99.90
25825;DHT22;13658;44.534;18.694;2023-03-01T15:58:14;5.00;99.90
25825;DHT22;13658;44.534;18.694;2023-03-01T16:00:41;4.90;99.90
25825;DHT22;13658;44.534;18.694;2023-03-01T16:03:10;4.90;99.90
25825;DHT22;13658;44.534;18.694;2023-03-01T16:05:38;4.80;99.90
25825;DHT22;13658;44.534;18.694;2023-03-01T16:08:05;4.80;99.90
25825;DHT22;13658;44.534;18.694;2023-03-01T16:10:32;4.80;99.90
25825;DHT22;13658;44.534;18.694;2023-03-01T16:12:59;4.80;99.90
25825;DHT22;13658;44.534;18.694;2023-03-01T16:15:33;4.80;99.90
25825;DHT22;13658;44.534;18.694;2023-03-01T16:18:02;4.60;99.90
25825;DHT22;13658;44.534;18.694;2023-03-01T16:20:29;4.60;99.90
25825;DHT22;13658;44.534;18.694;2023-03-01T16:22:58;4.60;99.90
25825;DHT22;13658;44.534;18.694;2023-03-01T16:25:25;4.60;99.90
25825;DHT22;13658;44.534;18.694;2023-03-01T16:27:51;4.60;99.90
25825;DHT22;13658;44.534;18.694;2023-03-01T16:30:21;4.60;99.90
25825;DHT22;13658;44.534;18.694;2023-03-01T16:32:49;4.60;99.90
25825;DHT22;13658;44.534;18.694;2023-03-01T16:35:18;4.60;99.90
25825;DHT22;13658;44.534;18.694;2023-03-01T16:37:45;4.60;99.90
25825;DHT22;13658;44.534;18.694;2023-03-01T16:40:17;4.60;99.90
25825;DHT22;13658;44.534;18.694;2023-03-01T16:42:44;4.50;99.90
25825;DHT22;13658;44.534;18.694;2023-03-01T16:45:10;4.50;99.90
25825;DHT22;13658;44.534;18.694;2023-03-01T16:47:36;4.40;99.90
25825;DHT22;13658;44.534;18.694;2023-03-01T16:50:02;4.40;99.90
25825;DHT22;13658;44.534;18.694;2023-03-01T16:52:28;4.30;99.90
25825;DHT22;13658;44.534;18.694;2023-03-01T16:54:54;4.30;99.90
25825;DHT22;13658;44.534;18.694;2023-03-01T16:57:20;4.40;99.90
25825;DHT22;13658;44.534;18.694;2023-03-01T16:59:46;4.40;99.90
25825;DHT22;13658;44.534;18.694;2023-03-01T17:02:13;4.60;99.90
25825;DHT22;13658;44.534;18.694;2023-03-01T17:04:40;4.50;99.90
25825;DHT22;13658;44.534;18.694;2023-03-01T17:07:06;4.60;99.90
25825;DHT22;13658;44.534;18.694;2023-03-01T17:09:37;4.60;99.90
25825;DHT22;13658;44.534;18.694;2023-03-01T17:12:06;4.60;99.90
25825;DHT22;13658;44.534;18.694;2023-03-01T17:14:32;4.70;99.90
25825;DHT22;13658;44.534;18.694;2023-03-01T17:16:58;4.70;99.90
25825;DHT22;13658;44.534;18.694;2023-03-01T17:19:23;4.70;99.90
25825;DHT22;13658;44.534;18.694;2023-03-01T17:21:49;4.70;99.90
25825;DHT22;13658;44.534;18.694;2023-03-01T17:24:15;4.70;99.90
25825;DHT22;13658;44.534;18.694;2023-03-01T17:26:42;4.70;99.90
25825;DHT22;13658;44.534;18.694;2023-03-01T17:29:08;4.70;99.90
25825;DHT22;13658;44.534;18.694;2023-03-01T17:31:34;4.70;99.90
25825;DHT22;13658;44.534;18.694;2023-03-01T17:34:00;4.70;99.90
25825;DHT22;13658;44.534;18.694;2023-03-01T17:36:26;4.70;99.90
25825;DHT22;13658;44.534;18.694;2023-03-01T17:38:52;4.70;99.90
25825;DHT22;13658;44.534;18.694;2023-03-01T17:41:18;4.50;99.90
25825;DHT22;13658;44.534;18.694;2023-03-01T17:43:46;4.60;99.90
25825;DHT22;13658;44.534;18.694;2023-03-01T17:46:13;4.50;99.90
25825;DHT22;13658;44.534;18.694;2023-03-01T17:48:39;4.50;99.90
25825;DHT22;13658;44.534;18.694;2023-03-01T17:51:09;4.50;99.90
25825;DHT22;13658;44.534;18.694;2023-03-01T17:53:37;4.50;99.90
25825;DHT22;13658;44.534;18.694;2023-03-01T17:56:05;4.50;99.90
25825;DHT22;13658;44.534;18.694;2023-03-01T17:58:32;4.50;99.90
25825;DHT22;13658;44.534;18.694;2023-03-01T18:01:18;4.50;99.90
25825;DHT22;13658;44.534;18.694;2023-03-01T18:03:44;4.50;99.90
25825;DHT22;13658;44.534;18.694;2023-03-01T18:08:41;4.40;99.90
25825;DHT22;13658;44.534;18.694;2023-03-01T18:11:07;4.40;99.90
25825;DHT22;13658;44.534;18.694;2023-03-01T18:13:34;4.50;99.90
25825;DHT22;13658;44.534;18.694;2023-03-01T18:16:07;4.50;99.90
25825;DHT22;13658;44.534;18.694;2023-03-01T18:18:34;4.40;99.90
25825;DHT22;13658;44.534;18.694;2023-03-01T18:21:01;4.40;99.90
25825;DHT22;13658;44.534;18.694;2023-03-01T18:23:28;4.30;99.90
25825;DHT22;13658;44.534;18.694;2023-03-01T18:26:02;4.20;99.90
25825;DHT22;13658;44.534;18.694;2023-03-01T18:28:30;4.10;99.90
25825;DHT22;13658;44.534;18.694;2023-03-01T18:31:04;4.00;99.90
25825;DHT22;13658;44.534;18.694;2023-03-01T18:33:33;4.00;99.90
25825;DHT22;13658;44.534;18.694;2023-03-01T18:35:59;3.90;99.90
25825;DHT22;13658;44.534;18.694;2023-03-01T18:38:26;3.80;99.90
25825;DHT22;13658;44.534;18.694;2023-03-01T18:40:53;3.80;99.90
25825;DHT22;13658;44.534;18.694;2023-03-01T18:43:20;3.80;99.90
25825;DHT22;13658;44.534;18.694;2023-03-01T18:45:47;3.70;99.90
25825;DHT22;13658;44.534;18.694;2023-03-01T18:48:14;3.70;99.90
25825;DHT22;13658;44.534;18.694;2023-03-01T18:50:41;3.60;99.90
25825;DHT22;13658;44.534;18.694;2023-03-01T18:53:07;3.70;99.90
25825;DHT22;13658;44.534;18.694;2023-03-01T18:55:38;3.70;99.90
25825;DHT22;13658;44.534;18.694;2023-03-01T18:58:04;3.70;99.90
25825;DHT22;13658;44.534;18.694;2023-03-01T19:00:31;3.60;99.90
25825;DHT22;13658;44.534;18.694;2023-03-01T19:03:00;3.60;99.90
25825;DHT22;13658;44.534;18.694;2023-03-01T19:05:27;3.60;99.90
25825;DHT22;13658;44.534;18.694;2023-03-01T19:07:54;3.70;99.90
25825;DHT22;13658;44.534;18.694;2023-03-01T19:10:20;3.70;99.90
25825;DHT22;13658;44.534;18.694;2023-03-01T19:12:46;3.70;99.90
25825;DHT22;13658;44.534;18.694;2023-03-01T19:15:12;3.60;99.90
25825;DHT22;13658;44.534;18.694;2023-03-01T19:17:41;3.70;99.90
25825;DHT22;13658;44.534;18.694;2023-03-01T19:20:08;3.80;99.90
25825;DHT22;13658;44.534;18.694;2023-03-01T19:22:34;3.90;99.90
25825;DHT22;13658;44.534;18.694;2023-03-01T19:25:00;3.90;99.90
25825;DHT22;13658;44.534;18.694;2023-03-01T19:27:26;4.00;99.90
25825;DHT22;13658;44.534;18.694;2023-03-01T19:29:52;3.90;99.90
25825;DHT22;13658;44.534;18.694;2023-03-01T19:32:18;3.90;99.90
25825;DHT22;13658;44.534;18.694;2023-03-01T19:34:44;3.90;99.90
25825;DHT22;13658;44.534;18.694;2023-03-01T19:37:11;4.00;99.90
25825;DHT22;13658;44.534;18.694;2023-03-01T19:39:37;4.00;99.90
25825;DHT22;13658;44.534;18.694;2023-03-01T19:42:03;3.90;99.90
25825;DHT22;13658;44.534;18.694;2023-03-01T19:44:29;4.00;99.90
25825;DHT22;13658;44.534;18.694;2023-03-01T19:46:56;4.00;99.90
25825;DHT22;13658;44.534;18.694;2023-03-01T19:49:23;4.00;99.90
25825;DHT22;13658;44.534;18.694;2023-03-01T19:51:49;4.00;99.90
25825;DHT22;13658;44.534;18.694;2023-03-01T19:54:15;4.00;99.90
25825;DHT22;13658;44.534;18.694;2023-03-01T19:56:45;4.00;99.90
25825;DHT22;13658;44.534;18.694;2023-03-01T19:59:12;4.00;99.90
25825;DHT22;13658;44.534;18.694;2023-03-01T20:01:39;3.90;99.90
25825;DHT22;13658;44.534;18.694;2023-03-01T20:04:08;3.90;99.90
25825;DHT22;13658;44.534;18.694;2023-03-01T20:06:35;3.90;99.90
25825;DHT22;13658;44.534;18.694;2023-03-01T20:09:02;3.90;99.90
25825;DHT22;13658;44.534;18.694;2023-03-01T20:11:29;3.90;99.90
25825;DHT22;13658;44.534;18.694;2023-03-01T20:13:56;3.90;99.90
25825;DHT22;13658;44.534;18.694;2023-03-01T20:16:22;3.80;99.90
25825;DHT22;13658;44.534;18.694;2023-03-01T20:18:49;3.90;99.90
25825;DHT22;13658;44.534;18.694;2023-03-01T20:21:15;3.90;99.90
25825;DHT22;13658;44.534;18.694;2023-03-01T20:23:43;3.80;99.90
25825;DHT22;13658;44.534;18.694;2023-03-01T20:26:10;3.70;99.90
25825;DHT22;13658;44.534;18.694;2023-03-01T20:28:45;3.70;99.90
25825;DHT22;13658;44.534;18.694;2023-03-01T20:31:13;3.60;99.90
25825;DHT22;13658;44.534;18.694;2023-03-01T20:33:40;3.60;99.90
25825;DHT22;13658;44.534;18.694;2023-03-01T20:36:08;3.60;99.90
25825;DHT22;13658;44.534;18.694;2023-03-01T20:38:35;3.50;99.90
25825;DHT22;13658;44.534;18.694;2023-03-01T20:41:09;3.50;99.90
25825;DHT22;13658;44.534;18.694;2023-03-01T20:43:36;3.50;99.90
25825;DHT22;13658;44.534;18.694;2023-03-01T20:46:08;3.70;99.90
25825;DHT22;13658;44.534;18.694;2023-03-01T20:48:36;3.70;99.90
25825;DHT22;13658;44.534;18.694;2023-03-01T20:51:06;3.80;99.90
25825;DHT22;13658;44.534;18.694;2023-03-01T20:53:32;3.80;99.90
25825;DHT22;13658;44.534;18.694;2023-03-01T20:56:03;3.80;99.90
25825;DHT22;13658;44.534;18.694;2023-03-01T20:58:29;3.80;99.90
25825;DHT22;13658;44.534;18.694;2023-03-01T21:00:59;3.90;99.90
25825;DHT22;13658;44.534;18.694;2023-03-01T21:03:25;3.90;99.90
25825;DHT22;13658;44.534;18.694;2023-03-01T21:05:54;3.90;99.90
25825;DHT22;13658;44.534;18.694;2023-03-01T21:08:21;3.90;99.90
25825;DHT22;13658;44.534;18.694;2023-03-01T21:10:51;3.90;99.90
25825;DHT22;13658;44.534;18.694;2023-03-01T21:13:18;3.90;99.90
25825;DHT22;13658;44.534;18.694;2023-03-01T21:15:55;3.70;99.90
25825;DHT22;13658;44.534;18.694;2023-03-01T21:18:21;3.60;99.90
25825;DHT22;13658;44.534;18.694;2023-03-01T21:20:48;3.60;99.90
25825;DHT22;13658;44.534;18.694;2023-03-01T21:23:14;3.70;99.90
25825;DHT22;13658;44.534;18.694;2023-03-01T21:25:41;3.70;99.90
25825;DHT22;13658;44.534;18.694;2023-03-01T21:28:07;3.60;99.90
25825;DHT22;13658;44.534;18.694;2023-03-01T21:30:33;3.60;99.90
25825;DHT22;13658;44.534;18.694;2023-03-01T21:32:59;3.50;99.90
25825;DHT22;13658;44.534;18.694;2023-03-01T21:35:25;3.60;99.90
25825;DHT22;13658;44.534;18.694;2023-03-01T21:37:51;3.60;99.90
25825;DHT22;13658;44.534;18.694;2023-03-01T21:40:17;3.70;99.90
25825;DHT22;13658;44.534;18.694;2023-03-01T21:42:43;3.50;99.90
25825;DHT22;13658;44.534;18.694;2023-03-01T21:45:09;3.60;99.90
25825;DHT22;13658;44.534;18.694;2023-03-01T21:47:35;3.60;99.90
25825;DHT22;13658;44.534;18.694;2023-03-01T21:50:01;3.60;99.90
25825;DHT22;13658;44.534;18.694;2023-03-01T21:52:27;3.70;99.90
25825;DHT22;13658;44.534;18.694;2023-03-01T21:54:53;3.70;99.90
25825;DHT22;13658;44.534;18.694;2023-03-01T21:57:20;3.60;99.90
25825;DHT22;13658;44.534;18.694;2023-03-01T21:59:46;3.60;99.90
25825;DHT22;13658;44.534;18.694;2023-03-01T22:02:12;3.60;99.90
25825;DHT22;13658;44.534;18.694;2023-03-01T22:04:41;3.60;99.90
25825;DHT22;13658;44.534;18.694;2023-03-01T22:07:07;3.60;99.90
25825;DHT22;13658;44.534;18.694;2023-03-01T22:09:33;3.60;99.90
25825;DHT22;13658;44.534;18.694;2023-03-01T22:12:01;3.60;99.90
25825;DHT22;13658;44.534;18.694;2023-03-01T22:14:28;3.60;99.90
25825;DHT22;13658;44.534;18.694;2023-03-01T22:16:55;3.60;99.90
25825;DHT22;13658;44.534;18.694;2023-03-01T22:19:21;3.60;99.90
25825;DHT22;13658;44.534;18.694;2023-03-01T22:21:49;3.50;99.90
25825;DHT22;13658;44.534;18.694;2023-03-01T22:24:22;3.60;99.90
25825;DHT22;13658;44.534;18.694;2023-03-01T22:26:50;3.60;99.90
25825;DHT22;13658;44.534;18.694;2023-03-01T22:29:23;3.50;99.90
25825;DHT22;13658;44.534;18.694;2023-03-01T22:31:50;3.30;99.90
25825;DHT22;13658;44.534;18.694;2023-03-01T22:34:17;3.30;99.90
25825;DHT22;13658;44.534;18.694;2023-03-01T22:36:43;3.20;99.90
25825;DHT22;13658;44.534;18.694;2023-03-01T22:39:10;3.20;99.90
25825;DHT22;13658;44.534;18.694;2023-03-01T22:41:40;3.20;99.90
25825;DHT22;13658;44.534;18.694;2023-03-01T22:44:10;3.30;99.90
25825;DHT22;13658;44.534;18.694;2023-03-01T22:46:36;3.20;99.90
25825;DHT22;13658;44.534;18.694;2023-03-01T22:49:03;3.10;99.90
25825;DHT22;13658;44.534;18.694;2023-03-01T22:51:32;3.10;99.90
25825;DHT22;13658;44.534;18.694;2023-03-01T22:53:59;3.20;99.90
25825;DHT22;13658;44.534;18.694;2023-03-01T22:56:30;3.30;99.90
25825;DHT22;13658;44.534;18.694;2023-03-01T22:58:58;3.40;99.90
25825;DHT22;13658;44.534;18.694;2023-03-01T23:01:27;3.30;99.90
25825;DHT22;13658;44.534;18.694;2023-03-01T23:03:53;3.30;99.90
25825;DHT22;13658;44.534;18.694;2023-03-01T23:06:21;3.20;99.90
25825;DHT22;13658;44.534;18.694;2023-03-01T23:08:53;3.10;99.90
25825;DHT22;13658;44.534;18.694;2023-03-01T23:11:20;3.10;99.90
25825;DHT22;13658;44.534;18.694;2023-03-01T23:13:46;3.20;99.90
25825;DHT22;13658;44.534;18.694;2023-03-01T23:16:13;3.30;99.90
25825;DHT22;13658;44.534;18.694;2023-03-01T23:18:40;3.40;99.90
25825;DHT22;13658;44.534;18.694;2023-03-01T23:21:17;3.50;99.90
25825;DHT22;13658;44.534;18.694;2023-03-01T23:23:44;3.50;99.90
25825;DHT22;13658;44.534;18.694;2023-03-01T23:26:11;3.30;99.90
25825;DHT22;13658;44.534;18.694;2023-03-01T23:28:38;3.30;99.90
25825;DHT22;13658;44.534;18.694;2023-03-01T23:31:09;3.30;99.90
25825;DHT22;13658;44.534;18.694;2023-03-01T23:33:36;3.20;99.90
25825;DHT22;13658;44.534;18.694;2023-03-01T23:36:25;3.40;99.90
25825;DHT22;13658;44.534;18.694;2023-03-01T23:39:00;3.40;99.90
25825;DHT22;13658;44.534;18.694;2023-03-01T23:41:28;3.40;99.90
25825;DHT22;13658;44.534;18.694;2023-03-01T23:43:59;3.40;99.90
25825;DHT22;13658;44.534;18.694;2023-03-01T23:46:28;3.50;99.90
25825;DHT22;13658;44.534;18.694;2023-03-01T23:48:54;3.40;99.90
25825;DHT22;13658;44.534;18.694;2023-03-01T23:51:22;3.50;99.90
25825;DHT22;13658;44.534;18.694;2023-03-01T23:53:50;3.40;99.90
25825;DHT22;13658;44.534;18.694;2023-03-01T23:56:27;3.50;99.90
25825;DHT22;13658;44.534;18.694;2023-03-01T23:59:02;3.50;99.90
